KMHS/MHS METAR and TAF weather

Enter ICAO airport designator
Station Type Date Time Source
KMHS METAR 2020/01/24 08:56 UTC NOAA

KMHS 240856Z AUTO 11004KT 5SM RA BR FEW013 OVC038 04/03 A3005 RMK AO2 RAB11 SLP198 P0005 60005 T00440033 56005


Station Type Date Time Source
KMHS Decoded METAR 2020/01/24 08:56 UTC NOAA

MOUNT SHASTA, CA, United States (KMHS) 41-19N 122-19W 1078M
Jan 24, 2020 - 03:56 AM EST / 2020.01.24 0856 UTC
Wind: from the ESE (110 degrees) at 5 MPH (4 KT):0
Visibility: 5 mile(s):0
Sky conditions: overcast
Weather: rain; mist
Precipitation last hour: 0.05 inches
Temperature: 39.9 F (4.4 C)
Dew Point: 37.9 F (3.3 C)
Relative Humidity: 92%
Pressure (altimeter): 30.05 in. Hg (1017 hPa)
Pressure tendency: 0.01 inches (0.5 hPa) lower than three hours ago
ob: KMHS 240856Z AUTO 11004KT 5SM RA BR FEW013 OVC038 04/03 A3005 RMK AO2 RAB11 SLP198 P0005 60005 T00440033 56005
cycle: 9

Station Type Date Time Source
KMHS TAF UTC NOAA

Error!

Example: see airport list